Time;durP1;ratioP1;P1;durP2;ratioP2;P2;SDS_P1;SDS_P2;PMS_P1;PMS_P2;Temp;Humidity;BMP_temperature;BMP_pressure;BME280_temperature;BME280_humidity;BME280_pressure;Samples;Min_cycle;Max_cycle;Signal;HPM_P1;HPM_P2
2021/11/24 00:00:45;;;;;;;36.37;15.93;;;5.70;98.10;;;;;;5033987;28;20934;-75
2021/11/24 00:03:10;;;;;;;32.03;15.40;;;5.80;98.10;;;;;;5033777;28;20432;-74
2021/11/24 00:05:36;;;;;;;30.97;16.37;;;5.80;98.10;;;;;;5034013;28;20409;-75
2021/11/24 00:08:02;;;;;;;31.67;14.97;;;5.80;97.90;;;;;;5033747;28;20221;-75
2021/11/24 00:10:31;;;;;;;36.53;16.33;;;5.70;97.90;;;;;;5016371;28;20321;-76
2021/11/24 00:12:57;;;;;;;35.00;15.73;;;5.70;98.00;;;;;;5033634;28;20417;-75
2021/11/24 00:15:23;;;;;;;35.10;15.70;;;5.70;97.80;;;;;;5033984;28;20408;-75
2021/11/24 00:17:49;;;;;;;44.70;17.30;;;5.70;98.00;;;;;;5033808;28;20941;-74
2021/11/24 00:20:15;;;;;;;34.93;17.13;;;5.60;98.00;;;;;;5033677;28;20561;-75
2021/11/24 00:22:53;;;;;;;32.10;15.83;;;5.70;98.00;;;;;;5017076;28;20432;-74
2021/11/24 00:25:22;;;;;;;32.83;17.30;;;5.70;98.10;;;;;;5033670;28;20931;-74
2021/11/24 00:27:50;;;;;;;27.00;16.17;;;5.60;98.10;;;;;;5016084;28;20882;-76
2021/11/24 00:30:16;;;;;;;30.60;13.57;;;5.60;98.00;;;;;;4999421;28;20445;-75
2021/11/24 00:32:42;;;;;;;30.63;15.40;;;5.70;98.10;;;;;;5033208;28;20181;-75
2021/11/24 00:35:08;;;;;;;28.97;15.57;;;5.70;98.00;;;;;;5032963;28;20169;-75
2021/11/24 00:37:35;;;;;;;32.73;15.77;;;5.70;98.10;;;;;;5033333;28;20260;-76
2021/11/24 00:40:01;;;;;;;33.50;15.23;;;5.70;98.10;;;;;;5033754;28;20472;-73
2021/11/24 00:42:27;;;;;;;36.50;16.23;;;5.70;98.10;;;;;;5014337;28;20432;-75
2021/11/24 00:44:53;;;;;;;31.40;13.83;;;5.70;98.00;;;;;;5033189;28;20413;-75
2021/11/24 00:47:18;;;;;;;37.57;15.80;;;5.70;98.00;;;;;;5033204;28;20501;-75
2021/11/24 00:49:56;;;;;;;27.30;13.80;;;5.70;97.80;;;;;;5033098;28;20186;-75
2021/11/24 00:52:22;;;;;;;36.90;14.27;;;5.70;97.80;;;;;;5033016;28;20166;-74
2021/11/24 00:54:47;;;;;;;30.23;15.00;;;5.70;97.90;;;;;;5015163;28;20470;-74
2021/11/24 00:57:22;;;;;;;35.53;15.47;;;5.80;97.90;;;;;;5033228;28;20468;-74
2021/11/24 00:59:48;;;;;;;32.67;16.33;;;5.80;97.90;;;;;;5033058;28;20186;-74
2021/11/24 01:02:16;;;;;;;29.53;14.70;;;5.80;97.80;;;;;;5032782;28;20401;-74
2021/11/24 01:04:45;;;;;;;37.50;15.67;;;5.80;97.70;;;;;;5032976;28;20599;-76
2021/11/24 01:07:10;;;;;;;31.00;15.07;;;5.70;97.70;;;;;;5033408;28;20405;-74
2021/11/24 01:09:36;;;;;;;31.63;13.87;;;5.70;97.80;;;;;;5031274;22;20534;-75
2021/11/24 01:12:03;;;;;;;30.13;14.10;;;5.80;97.80;;;;;;5018154;28;20539;-74
2021/11/24 01:14:29;;;;;;;33.93;15.40;;;5.80;97.80;;;;;;5035175;28;20171;-74
2021/11/24 01:16:54;;;;;;;29.80;15.80;;;5.80;97.80;;;;;;5036494;28;20459;-75
2021/11/24 01:19:20;;;;;;;35.50;14.97;;;5.80;97.70;;;;;;5038360;28;20192;-75
2021/11/24 01:21:46;;;;;;;37.70;15.80;;;5.80;97.60;;;;;;5054089;28;20180;-75
2021/11/24 01:24:12;;;;;;;34.17;15.10;;;5.80;97.60;;;;;;5053949;28;20401;-75
2021/11/24 01:26:38;;;;;;;27.40;14.33;;;5.80;97.50;;;;;;5036259;28;20162;-74
2021/11/24 01:29:04;;;;;;;32.07;14.53;;;5.80;97.50;;;;;;5054340;28;20515;-75
2021/11/24 01:31:30;;;;;;;27.97;13.87;;;5.80;97.50;;;;;;5054041;28;20415;-75
2021/11/24 01:33:56;;;;;;;27.60;13.67;;;5.80;97.50;;;;;;5053864;28;20486;-75
2021/11/24 01:36:22;;;;;;;35.50;16.33;;;5.70;97.50;;;;;;5053058;28;20759;-75
2021/11/24 01:38:48;;;;;;;37.73;16.27;;;5.80;97.60;;;;;;5036004;28;20474;-73
2021/11/24 01:41:17;;;;;;;30.47;14.17;;;5.70;97.60;;;;;;5053613;28;21099;-73
2021/11/24 01:43:42;;;;;;;35.23;16.50;;;5.70;97.60;;;;;;5054577;28;20170;-74
2021/11/24 01:46:08;;;;;;;32.90;16.20;;;5.80;97.60;;;;;;5066957;28;20462;-74
2021/11/24 01:48:34;;;;;;;32.40;16.80;;;5.70;97.40;;;;;;5053079;28;20193;-74
2021/11/24 01:51:00;;;;;;;31.17;14.97;;;5.70;97.50;;;;;;5071279;28;20204;-74
2021/11/24 01:53:27;;;;;;;34.33;15.27;;;5.70;97.50;;;;;;5057916;28;20200;-74
2021/11/24 01:55:58;;;;;;;31.50;14.43;;;5.70;97.50;;;;;;5052926;28;20315;-75
2021/11/24 01:58:25;;;;;;;35.80;14.53;;;5.70;97.50;;;;;;5052842;28;20475;-75
2021/11/24 02:00:51;;;;;;;35.63;15.60;;;5.80;97.50;;;;;;5035765;28;20427;-74
2021/11/24 02:03:17;;;;;;;31.17;15.57;;;5.70;97.50;;;;;;5035925;28;20898;-74
2021/11/24 02:05:43;;;;;;;31.07;14.90;;;5.70;97.40;;;;;;5053413;28;20409;-75
2021/11/24 02:08:09;;;;;;;30.90;14.07;;;5.70;97.50;;;;;;5053514;28;20409;-74
2021/11/24 02:10:35;;;;;;;31.93;14.97;;;5.70;97.50;;;;;;5052579;28;20288;-74
2021/11/24 02:13:00;;;;;;;35.00;15.83;;;5.70;97.50;;;;;;5053375;28;20157;-76
2021/11/24 02:15:26;;;;;;;29.20;15.43;;;5.70;97.60;;;;;;5035752;28;20651;-75
2021/11/24 02:17:52;;;;;;;34.57;14.73;;;5.70;97.50;;;;;;5052464;28;20224;-74
2021/11/24 02:20:33;;;;;;;33.23;15.23;;;5.70;97.50;;;;;;5053420;28;20182;-75
2021/11/24 02:23:00;;;;;;;30.43;14.40;;;5.70;97.50;;;;;;5053496;28;20404;-75
2021/11/24 02:25:25;;;;;;;36.23;14.50;;;5.70;97.50;;;;;;5054758;28;20409;-75
2021/11/24 02:27:51;;;;;;;32.27;14.03;;;5.70;97.50;;;;;;5054715;28;20479;-76
2021/11/24 02:30:17;;;;;;;32.30;16.60;;;5.70;97.50;;;;;;5053291;28;20185;-75
2021/11/24 02:32:43;;;;;;;35.10;15.20;;;5.70;97.50;;;;;;5035716;28;20223;-75
2021/11/24 02:35:09;;;;;;;32.50;15.20;;;5.60;97.50;;;;;;5053681;28;20408;-75
2021/11/24 02:37:35;;;;;;;35.13;18.10;;;5.60;97.60;;;;;;5053923;28;20221;-75
2021/11/24 02:40:01;;;;;;;36.60;15.90;;;5.60;97.60;;;;;;5035814;28;20236;-75
2021/11/24 02:42:27;;;;;;;38.43;16.03;;;5.60;97.70;;;;;;5035523;28;20470;-75
2021/11/24 02:44:52;;;;;;;33.03;14.80;;;5.60;97.70;;;;;;5053399;28;20404;-75
2021/11/24 02:47:21;;;;;;;32.53;16.27;;;5.70;97.70;;;;;;5053790;28;20681;-74
2021/11/24 02:49:50;;;;;;;40.33;16.10;;;5.70;97.70;;;;;;5051594;28;20272;-74
2021/11/24 02:52:17;;;;;;;40.30;16.23;;;5.70;97.60;;;;;;5052196;28;20423;-75
2021/11/24 02:54:55;;;;;;;43.40;15.37;;;5.70;97.60;;;;;;5051960;28;20782;-76
2021/11/24 02:57:33;;;;;;;35.70;15.20;;;5.70;97.70;;;;;;5034429;28;20448;-75
2021/11/24 03:00:00;;;;;;;35.13;16.07;;;5.70;97.60;;;;;;5051964;28;20963;-75
2021/11/24 03:02:27;;;;;;;32.10;17.60;;;5.70;97.60;;;;;;5033691;28;20397;-75
2021/11/24 03:04:54;;;;;;;42.10;17.30;;;5.70;97.40;;;;;;5033467;28;20436;-75
2021/11/24 03:07:20;;;;;;;38.43;15.60;;;5.70;97.50;;;;;;5051609;28;20476;-75
2021/11/24 03:09:46;;;;;;;37.30;16.43;;;5.70;97.50;;;;;;5052089;28;20770;-75
2021/11/24 03:12:12;;;;;;;29.60;13.33;;;5.70;97.50;;;;;;5034420;28;20220;-75
2021/11/24 03:14:38;;;;;;;36.50;15.80;;;5.80;97.50;;;;;;5052542;28;20566;-74
2021/11/24 03:17:04;;;;;;;33.37;15.60;;;5.80;97.40;;;;;;5052513;28;20444;-75
2021/11/24 03:19:29;;;;;;;31.17;15.87;;;5.80;97.30;;;;;;5034972;28;20188;-75
2021/11/24 03:21:55;;;;;;;40.10;17.90;;;5.80;97.30;;;;;;5034352;28;20759;-74
2021/11/24 03:24:21;;;;;;;32.53;14.77;;;5.70;97.30;;;;;;5033761;28;20162;-75
2021/11/24 03:26:46;;;;;;;33.50;15.37;;;5.70;97.30;;;;;;5034299;28;20706;-75
2021/11/24 03:29:12;;;;;;;41.63;19.43;;;5.70;97.50;;;;;;5052020;28;20539;-74
2021/11/24 03:31:38;;;;;;;35.67;16.70;;;5.70;97.50;;;;;;5051126;28;20168;-75
2021/11/24 03:34:06;;;;;;;32.53;16.50;;;5.70;97.40;;;;;;5051665;28;20173;-76
2021/11/24 03:36:31;;;;;;;37.07;16.50;;;5.80;97.50;;;;;;5033583;28;20261;-74
2021/11/24 03:38:57;;;;;;;39.10;17.40;;;5.80;97.50;;;;;;5033187;28;20448;-75
2021/11/24 03:41:23;;;;;;;30.30;16.50;;;5.80;97.50;;;;;;5051477;28;20158;-76
2021/11/24 03:43:48;;;;;;;38.67;16.23;;;5.80;97.40;;;;;;5050895;28;20215;-75
2021/11/24 03:46:14;;;;;;;36.60;17.67;;;5.80;97.30;;;;;;5033086;28;20257;-75
2021/11/24 03:48:40;;;;;;;29.87;16.63;;;5.80;97.30;;;;;;5051809;28;20193;-75
2021/11/24 03:51:06;;;;;;;40.83;15.80;;;5.80;97.30;;;;;;5051435;28;20530;-75
2021/11/24 03:53:34;;;;;;;32.27;15.63;;;5.80;97.40;;;;;;5035991;28;20170;-75
2021/11/24 03:56:00;;;;;;;35.57;16.10;;;5.80;97.50;;;;;;5035346;28;20253;-75
2021/11/24 03:58:25;;;;;;;45.00;17.70;;;5.80;97.30;;;;;;5035681;28;20517;-74
2021/11/24 04:00:51;;;;;;;35.83;16.23;;;5.70;97.30;;;;;;5051621;28;20440;-75
2021/11/24 04:03:17;;;;;;;39.10;17.67;;;5.70;97.30;;;;;;5051067;28;20250;-75
2021/11/24 04:05:43;;;;;;;38.20;17.33;;;5.70;97.40;;;;;;5051164;28;20170;-75
2021/11/24 04:08:08;;;;;;;40.00;17.20;;;5.70;97.40;;;;;;5050828;28;20162;-74
2021/11/24 04:10:34;;;;;;;32.97;16.20;;;5.70;97.50;;;;;;5033454;28;20726;-75
2021/11/24 04:13:00;;;;;;;41.40;17.90;;;5.80;97.60;;;;;;5032906;28;20178;-75
2021/11/24 04:15:25;;;;;;;37.57;16.53;;;5.80;97.50;;;;;;5033819;28;20177;-74
2021/11/24 04:17:51;;;;;;;34.73;16.60;;;5.80;97.50;;;;;;5054188;28;20190;-73
2021/11/24 04:20:19;;;;;;;35.03;16.80;;;5.80;97.60;;;;;;5056020;28;20204;-72
2021/11/24 04:22:46;;;;;;;35.40;15.07;;;5.90;97.50;;;;;;5058081;28;20408;-71
2021/11/24 04:25:12;;;;;;;34.00;15.60;;;5.80;97.40;;;;;;5061641;28;20419;-72
2021/11/24 04:27:38;;;;;;;36.70;16.40;;;5.80;97.40;;;;;;5060598;28;20801;-71
2021/11/24 04:30:05;;;;;;;41.33;16.53;;;5.80;97.40;;;;;;5059921;28;20432;-73
2021/11/24 04:32:31;;;;;;;38.20;16.10;;;5.80;97.40;;;;;;5061039;28;20173;-71
2021/11/24 04:34:57;;;;;;;32.50;16.17;;;5.80;97.40;;;;;;5037870;28;20427;-72
2021/11/24 04:37:23;;;;;;;34.70;15.57;;;5.90;97.50;;;;;;5036355;28;20447;-72
2021/11/24 04:39:48;;;;;;;35.70;16.47;;;5.90;97.50;;;;;;5054981;28;20186;-73
2021/11/24 04:42:14;;;;;;;35.80;15.20;;;5.90;97.50;;;;;;5055122;28;20166;-73
2021/11/24 04:44:40;;;;;;;34.03;15.27;;;5.90;97.30;;;;;;5053824;28;20170;-73
2021/11/24 04:47:05;;;;;;;40.90;17.33;;;5.90;97.30;;;;;;5053981;28;20196;-71
2021/11/24 04:49:31;;;;;;;38.50;16.90;;;5.90;97.20;;;;;;5054245;28;20182;-73
2021/11/24 04:51:57;;;;;;;38.30;15.97;;;5.80;97.20;;;;;;5054027;28;20174;-72
2021/11/24 04:54:23;;;;;;;29.50;15.00;;;5.80;97.10;;;;;;5054632;28;20516;-72
2021/11/24 04:56:49;;;;;;;29.60;14.90;;;5.80;97.20;;;;;;5036897;28;20178;-72
2021/11/24 04:59:15;;;;;;;32.17;14.30;;;5.80;97.20;;;;;;5054684;28;20439;-71
2021/11/24 05:01:42;;;;;;;27.00;13.60;;;5.80;97.20;;;;;;5054052;28;20162;-72
2021/11/24 05:04:07;;;;;;;37.03;15.23;;;5.80;97.20;;;;;;5054753;28;20792;-71
2021/11/24 05:06:33;;;;;;;39.63;16.27;;;5.80;97.20;;;;;;5036266;28;20408;-71
2021/11/24 05:08:59;;;;;;;32.73;15.50;;;5.80;97.20;;;;;;5034933;28;20412;-72
2021/11/24 05:11:25;;;;;;;34.47;15.90;;;5.80;97.30;;;;;;5035980;28;20176;-72
2021/11/24 05:13:56;;;;;;;31.67;13.97;;;5.80;97.30;;;;;;5036012;28;20182;-72
2021/11/24 05:16:24;;;;;;;32.67;13.50;;;5.90;97.30;;;;;;5054279;28;20174;-73
2021/11/24 05:18:50;;;;;;;27.90;12.80;;;5.90;97.20;;;;;;5053584;28;20971;-72
2021/11/24 05:21:31;;;;;;;31.97;13.90;;;5.90;97.20;;;;;;5054140;28;20404;-72
2021/11/24 05:23:58;;;;;;;21.40;11.83;;;5.90;97.10;;;;;;5053804;28;20166;-72
2021/11/24 05:26:24;;;;;;;35.50;13.30;;;5.90;97.10;;;;;;5036101;28;20413;-72
2021/11/24 05:28:51;;;;;;;27.70;13.03;;;5.90;97.10;;;;;;5053897;28;20466;-72
2021/11/24 05:31:17;;;;;;;34.93;14.40;;;5.90;97.20;;;;;;5035965;28;20459;-71
2021/11/24 05:33:43;;;;;;;31.73;13.40;;;5.90;97.30;;;;;;5035430;28;20507;-72
2021/11/24 05:36:09;;;;;;;29.57;12.87;;;5.90;97.30;;;;;;5053772;28;20519;-73
2021/11/24 05:38:35;;;;;;;27.77;13.13;;;6.00;97.30;;;;;;5053154;28;20248;-73
2021/11/24 05:41:01;;;;;;;34.47;14.13;;;6.00;97.30;;;;;;5052934;28;20416;-72
2021/11/24 05:43:27;;;;;;;29.40;12.23;;;5.90;97.20;;;;;;5053420;28;21095;-72
2021/11/24 05:48:21;;;;;;;31.87;15.10;;;5.90;97.20;;;;;;5033328;28;20448;-71
2021/11/24 05:50:48;;;;;;;24.70;12.70;;;6.00;97.20;;;;;;5033167;28;20460;-72
2021/11/24 05:53:16;;;;;;;37.77;15.60;;;5.90;97.20;;;;;;5006270;28;20549;-72
2021/11/24 05:55:43;;;;;;;32.80;13.53;;;5.90;97.20;;;;;;5017766;28;20587;-72
2021/11/24 05:58:10;;;;;;;30.20;13.00;;;5.90;97.20;;;;;;5015789;28;20807;-73
2021/11/24 06:00:36;;;;;;;28.07;11.40;;;5.90;97.30;;;;;;5017520;28;21026;-73
2021/11/24 06:03:02;;;;;;;28.83;12.53;;;5.90;97.20;;;;;;5013098;28;20434;-72
2021/11/24 06:05:28;;;;;;;38.60;14.50;;;5.90;97.30;;;;;;5012104;28;20896;-73
2021/11/24 06:07:53;;;;;;;30.90;14.17;;;5.90;97.30;;;;;;5013513;28;20175;-72
2021/11/24 06:10:19;;;;;;;26.97;11.47;;;6.00;97.30;;;;;;5011995;28;20203;-70
2021/11/24 06:12:45;;;;;;;32.87;12.77;;;6.00;97.30;;;;;;4997232;28;20175;-73
2021/11/24 06:15:17;;;;;;;28.53;11.80;;;5.90;97.30;;;;;;4996076;28;20445;-73
2021/11/24 06:17:43;;;;;;;22.33;12.30;;;6.00;97.40;;;;;;5015213;28;20471;-72
2021/11/24 06:20:10;;;;;;;23.30;10.33;;;6.00;97.20;;;;;;5008902;28;20472;-73
2021/11/24 06:22:37;;;;;;;26.33;12.20;;;6.00;97.20;;;;;;4994279;28;20439;-73
2021/11/24 06:25:04;;;;;;;26.30;14.27;;;6.00;97.20;;;;;;4993455;28;20423;-73
2021/11/24 06:27:29;;;;;;;25.60;12.13;;;6.00;97.20;;;;;;4993737;28;20415;-73
2021/11/24 06:29:55;;;;;;;21.87;11.13;;;6.00;97.10;;;;;;4994822;28;20443;-74
2021/11/24 06:32:21;;;;;;;30.57;13.67;;;6.00;97.30;;;;;;4994759;28;20641;-72
2021/11/24 06:34:46;;;;;;;29.73;12.67;;;6.00;97.20;;;;;;5000991;28;20221;-72
2021/11/24 06:37:12;;;;;;;28.97;12.80;;;6.00;97.20;;;;;;5022547;28;20186;-75
2021/11/24 06:39:38;;;;;;;30.53;12.30;;;6.00;97.30;;;;;;5048306;28;20257;-74
2021/11/24 06:42:04;;;;;;;29.20;12.03;;;6.00;97.30;;;;;;5017967;28;20214;-74
2021/11/24 06:44:30;;;;;;;25.80;12.90;;;6.00;97.30;;;;;;5013430;28;20159;-73
2021/11/24 06:46:55;;;;;;;28.27;11.70;;;6.00;97.30;;;;;;5011443;28;20499;-72
2021/11/24 06:49:21;;;;;;;29.23;14.00;;;6.10;97.30;;;;;;4993312;28;20192;-73
2021/11/24 06:51:47;;;;;;;27.93;10.97;;;6.10;97.20;;;;;;4993254;28;20171;-70
2021/11/24 06:54:17;;;;;;;28.93;12.40;;;6.10;97.30;;;;;;4992484;28;20426;-72
2021/11/24 06:56:44;;;;;;;32.87;11.80;;;6.10;97.30;;;;;;4993446;28;20398;-72
2021/11/24 06:59:12;;;;;;;34.00;13.03;;;6.10;97.30;;;;;;5002482;28;20477;-71
2021/11/24 07:01:45;;;;;;;31.00;12.33;;;6.10;97.10;;;;;;5013332;28;20426;-70
2021/11/24 07:04:11;;;;;;;28.67;11.47;;;6.10;97.00;;;;;;5041653;28;20441;-73
2021/11/24 07:06:37;;;;;;;31.60;13.83;;;6.00;97.10;;;;;;5012966;28;20438;-74
2021/11/24 07:09:03;;;;;;;30.80;12.33;;;6.00;97.20;;;;;;5012818;28;20178;-72
2021/11/24 07:11:30;;;;;;;33.80;13.47;;;6.00;97.20;;;;;;5051209;23;21028;-71
2021/11/24 07:13:57;;;;;;;32.03;12.50;;;6.00;97.30;;;;;;5030342;28;20451;-70
2021/11/24 07:16:23;;;;;;;30.47;13.20;;;6.00;97.40;;;;;;5031487;28;20511;-68
2021/11/24 07:18:49;;;;;;;33.83;14.23;;;6.00;97.50;;;;;;5031256;28;20539;-69
2021/11/24 07:21:15;;;;;;;32.20;12.73;;;6.00;97.50;;;;;;5031967;28;20453;-68
2021/11/24 07:23:41;;;;;;;32.80;14.33;;;6.00;97.40;;;;;;5031102;28;20404;-70
2021/11/24 07:26:06;;;;;;;36.03;14.53;;;6.10;97.50;;;;;;5031404;28;20169;-69
2021/11/24 07:28:32;;;;;;;32.47;13.57;;;6.10;97.40;;;;;;5031429;28;20413;-69
2021/11/24 07:30:58;;;;;;;32.07;13.40;;;6.10;97.50;;;;;;5031581;28;20273;-71
2021/11/24 07:33:23;;;;;;;33.03;13.53;;;6.20;97.50;;;;;;5031389;28;20247;-69
2021/11/24 07:35:49;;;;;;;37.73;15.50;;;6.20;97.40;;;;;;5031747;28;20261;-70
2021/11/24 07:38:15;;;;;;;28.43;13.13;;;6.20;97.40;;;;;;5031468;28;20259;-69
2021/11/24 07:40:41;;;;;;;27.87;13.60;;;6.20;97.30;;;;;;5031298;28;20213;-72
2021/11/24 07:43:07;;;;;;;39.93;15.57;;;6.30;97.20;;;;;;5031562;28;20404;-70
2021/11/24 07:45:33;;;;;;;30.60;13.00;;;6.30;97.20;;;;;;5031610;28;20210;-71
2021/11/24 07:47:59;;;;;;;31.60;15.10;;;6.30;97.10;;;;;;5031848;28;20425;-71
2021/11/24 07:50:25;;;;;;;37.03;16.03;;;6.30;97.20;;;;;;5032504;28;20870;-70
2021/11/24 07:52:51;;;;;;;33.93;15.20;;;6.30;97.10;;;;;;5033709;28;20166;-70
2021/11/24 07:55:17;;;;;;;31.40;14.50;;;6.30;97.00;;;;;;5034769;28;20882;-69
2021/11/24 07:57:43;;;;;;;28.23;13.57;;;6.30;96.90;;;;;;5034793;28;20198;-68
2021/11/24 08:00:09;;;;;;;26.40;12.33;;;6.30;96.90;;;;;;5033448;28;20732;-71
2021/11/24 08:02:40;;;;;;;29.97;13.03;;;6.30;96.90;;;;;;5034639;28;20190;-70
2021/11/24 08:05:06;;;;;;;31.03;12.87;;;6.40;96.80;;;;;;5035343;28;20440;-70
2021/11/24 08:07:32;;;;;;;33.60;15.33;;;6.40;96.90;;;;;;5033481;28;20425;-70
2021/11/24 08:09:59;;;;;;;29.97;13.70;;;6.40;96.60;;;;;;5033477;28;20873;-71
2021/11/24 08:12:25;;;;;;;33.13;16.20;;;6.40;96.70;;;;;;5033469;28;20421;-72
2021/11/24 08:14:52;;;;;;;28.93;14.10;;;6.50;96.80;;;;;;5035310;28;20763;-70
2021/11/24 08:17:18;;;;;;;33.00;11.90;;;6.50;96.30;;;;;;5034497;28;20468;-68
2021/11/24 08:19:44;;;;;;;27.90;12.97;;;6.50;96.50;;;;;;5033167;28;20444;-70
2021/11/24 08:22:10;;;;;;;26.93;12.97;;;6.50;96.30;;;;;;5034566;28;20413;-71
2021/11/24 08:24:36;;;;;;;28.33;13.63;;;6.50;96.20;;;;;;5034360;28;20170;-70
2021/11/24 08:27:02;;;;;;;30.33;13.10;;;6.50;96.30;;;;;;5034806;28;20409;-70
2021/11/24 08:29:29;;;;;;;28.77;12.87;;;6.50;96.00;;;;;;5034402;28;20174;-71
2021/11/24 08:31:54;;;;;;;24.53;11.70;;;6.50;96.20;;;;;;5035133;28;20409;-70
2021/11/24 08:34:20;;;;;;;28.43;13.00;;;6.50;96.00;;;;;;5033854;28;20474;-72
2021/11/24 08:36:47;;;;;;;32.20;14.13;;;6.60;95.90;;;;;;5034505;28;20214;-69
2021/11/24 08:39:12;;;;;;;25.97;13.60;;;6.60;96.00;;;;;;5034810;28;20440;-70
2021/11/24 08:41:38;;;;;;;24.67;12.33;;;6.60;95.80;;;;;;5035705;28;20612;-70
2021/11/24 08:44:04;;;;;;;26.67;12.60;;;6.60;95.60;;;;;;5034660;28;20313;-70
2021/11/24 08:46:30;;;;;;;23.57;11.10;;;6.60;95.80;;;;;;5036210;28;20233;-71
2021/11/24 08:48:56;;;;;;;26.50;11.30;;;6.70;95.40;;;;;;5036243;28;20413;-69
2021/11/24 08:51:22;;;;;;;22.80;11.47;;;6.70;95.30;;;;;;5036685;28;20504;-70
2021/11/24 08:53:48;;;;;;;28.80;11.73;;;6.70;95.30;;;;;;5035975;28;20791;-71
2021/11/24 08:56:13;;;;;;;26.47;11.67;;;6.80;94.90;;;;;;5035113;28;20412;-69
2021/11/24 08:58:40;;;;;;;25.83;12.80;;;6.80;95.30;;;;;;5034342;28;20699;-70
2021/11/24 09:01:06;;;;;;;24.33;11.30;;;6.90;95.20;;;;;;5033942;28;20190;-71
2021/11/24 09:03:32;;;;;;;23.70;10.77;;;6.90;94.60;;;;;;5031710;28;20427;-71
2021/11/24 09:05:59;;;;;;;23.33;10.80;;;6.90;94.50;;;;;;5033294;28;20417;-70
2021/11/24 09:08:25;;;;;;;22.43;10.67;;;6.90;94.20;;;;;;5033868;28;20253;-70
2021/11/24 09:10:52;;;;;;;22.50;11.27;;;6.90;94.10;;;;;;5034267;28;20441;-70
2021/11/24 09:13:18;;;;;;;24.83;12.00;;;6.90;94.10;;;;;;5032892;28;20570;-72
2021/11/24 09:15:45;;;;;;;22.57;10.77;;;6.90;94.40;;;;;;5033466;28;20492;-69
2021/11/24 09:18:12;;;;;;;21.37;11.60;;;6.90;94.50;;;;;;5032730;28;20275;-70
2021/11/24 09:20:37;;;;;;;16.57;9.93;;;6.90;94.70;;;;;;5034169;28;20468;-72
2021/11/24 09:23:04;;;;;;;19.10;10.30;;;7.00;94.50;;;;;;5033181;28;20429;-71
2021/11/24 09:25:51;;;;;;;20.47;11.30;;;7.10;94.20;;;;;;5033032;28;20186;-70
2021/11/24 09:28:19;;;;;;;21.10;10.23;;;7.10;93.70;;;;;;5033468;28;20409;-69
2021/11/24 09:30:47;;;;;;;22.40;10.00;;;7.10;93.80;;;;;;5033100;28;20735;-69
2021/11/24 09:33:13;;;;;;;21.33;9.67;;;7.10;94.30;;;;;;5031595;28;20468;-69
2021/11/24 09:35:39;;;;;;;22.77;9.60;;;7.20;94.00;;;;;;5033105;28;20911;-69
2021/11/24 09:38:06;;;;;;;20.07;10.90;;;7.20;93.70;;;;;;5033145;28;20225;-72
2021/11/24 09:40:32;;;;;;;24.30;10.70;;;7.20;93.40;;;;;;5033155;28;20186;-71
2021/11/24 09:43:05;;;;;;;20.17;11.67;;;7.20;93.40;;;;;;5033506;28;20767;-69
2021/11/24 09:45:31;;;;;;;20.83;10.67;;;7.20;93.40;;;;;;5033296;28;20397;-71
2021/11/24 09:47:59;;;;;;;18.20;11.03;;;7.10;93.40;;;;;;5033503;28;20890;-69
2021/11/24 09:50:27;;;;;;;22.33;10.30;;;7.10;93.60;;;;;;5031638;28;20432;-71
2021/11/24 09:52:56;;;;;;;22.83;9.83;;;7.10;93.50;;;;;;5031291;28;20416;-71
2021/11/24 09:55:24;;;;;;;23.33;11.30;;;7.20;93.70;;;;;;5032196;28;20413;-70
2021/11/24 09:57:52;;;;;;;21.90;11.13;;;7.20;93.90;;;;;;5032402;28;20548;-71
2021/11/24 10:00:18;;;;;;;22.70;11.20;;;7.30;93.80;;;;;;5033444;28;20826;-71
2021/11/24 10:02:44;;;;;;;20.40;9.90;;;7.30;92.80;;;;;;5033022;28;20424;-70
2021/11/24 10:05:10;;;;;;;23.10;10.83;;;7.30;92.20;;;;;;5033399;28;20170;-69
2021/11/24 10:07:37;;;;;;;21.80;11.80;;;7.30;92.30;;;;;;5032398;28;20463;-70
2021/11/24 10:10:03;;;;;;;17.70;9.00;;;7.30;92.60;;;;;;5032214;28;20543;-69
2021/11/24 10:12:29;;;;;;;21.93;11.60;;;7.30;92.30;;;;;;5032883;28;20409;-71
2021/11/24 10:14:55;;;;;;;21.23;11.87;;;7.40;92.20;;;;;;5029743;28;20923;-71
2021/11/24 10:17:26;;;;;;;16.43;10.60;;;7.40;92.40;;;;;;5032887;28;20263;-71
2021/11/24 10:20:17;;;;;;;22.07;11.17;;;7.60;92.10;;;;;;5031982;28;20190;-70
2021/11/24 10:22:44;;;;;;;24.97;11.43;;;7.60;91.50;;;;;;5029435;28;20487;-70
2021/11/24 10:25:16;;;;;;;18.07;11.00;;;7.60;91.30;;;;;;5030498;28;20447;-69
2021/11/24 10:27:45;;;;;;;17.00;9.00;;;7.70;91.70;;;;;;5030560;28;20791;-71
2021/11/24 10:30:21;;;;;;;20.87;10.57;;;7.80;91.30;;;;;;5031713;28;20950;-68
2021/11/24 10:32:47;;;;;;;18.40;9.33;;;7.90;90.70;;;;;;5031338;28;20909;-70
2021/11/24 10:35:13;;;;;;;17.37;9.33;;;8.00;91.30;;;;;;5030549;28;20424;-72
2021/11/24 10:37:39;;;;;;;23.30;10.27;;;8.20;90.70;;;;;;5032123;28;20210;-71
2021/11/24 10:40:08;;;;;;;23.03;10.73;;;8.30;90.10;;;;;;5031752;28;20189;-70
2021/11/24 10:42:43;;;;;;;17.47;9.23;;;8.30;89.90;;;;;;5031630;28;20409;-70
2021/11/24 10:45:13;;;;;;;18.53;9.67;;;8.50;88.40;;;;;;5031597;28;20408;-70
2021/11/24 10:47:54;;;;;;;16.60;8.83;;;8.50;88.70;;;;;;5031787;28;20401;-70
2021/11/24 10:50:22;;;;;;;18.37;9.23;;;8.60;87.60;;;;;;5032944;28;20424;-70
2021/11/24 10:52:48;;;;;;;22.60;10.03;;;8.70;87.70;;;;;;5032047;28;20405;-70
2021/11/24 10:55:21;;;;;;;17.93;8.70;;;8.80;86.90;;;;;;5035053;28;20787;-72
2021/11/24 10:58:07;;;;;;;17.10;9.20;;;8.80;84.00;;;;;;5033790;28;20579;-69
2021/11/24 11:01:00;;;;;;;19.70;9.03;;;8.80;84.50;;;;;;5033882;28;20436;-70
2021/11/24 11:03:36;;;;;;;19.73;10.07;;;8.80;84.20;;;;;;5033627;28;20421;-70
2021/11/24 11:06:02;;;;;;;15.33;9.20;;;8.70;83.90;;;;;;5033978;28;20427;-70
2021/11/24 11:08:27;;;;;;;19.93;10.27;;;8.80;84.30;;;;;;5032618;28;20393;-70
2021/11/24 11:10:56;;;;;;;17.13;10.13;;;8.80;84.10;;;;;;5032202;28;20228;-69
2021/11/24 11:13:29;;;;;;;16.60;8.70;;;8.80;83.90;;;;;;5030461;28;20202;-71
2021/11/24 11:15:56;;;;;;;19.33;10.43;;;8.70;84.40;;;;;;5030242;28;20413;-72
2021/11/24 11:18:26;;;;;;;16.67;8.60;;;8.90;84.90;;;;;;5031118;28;20833;-72
2021/11/24 11:21:08;;;;;;;17.57;8.83;;;8.90;83.70;;;;;;5030808;28;20439;-70
2021/11/24 11:23:43;;;;;;;15.13;9.10;;;9.00;82.80;;;;;;5030732;28;20492;-71
2021/11/24 11:26:15;;;;;;;15.90;9.87;;;9.10;82.10;;;;;;5033302;28;20487;-72
2021/11/24 11:28:43;;;;;;;14.90;8.20;;;9.10;80.40;;;;;;5033810;28;20467;-71
2021/11/24 11:31:11;;;;;;;11.90;6.30;;;9.10;79.10;;;;;;5034911;28;20432;-70
2021/11/24 11:33:40;;;;;;;14.57;5.83;;;9.10;78.90;;;;;;5034897;28;20458;-70
2021/11/24 11:36:08;;;;;;;15.00;5.90;;;9.00;76.20;;;;;;5034027;28;20475;-72
2021/11/24 11:38:37;;;;;;;12.97;7.30;;;9.00;76.70;;;;;;5033482;28;20548;-71
2021/11/24 11:41:04;;;;;;;15.60;7.40;;;9.10;76.70;;;;;;5035168;28;20807;-70
2021/11/24 11:43:31;;;;;;;11.50;6.30;;;9.10;75.10;;;;;;5034803;28;21034;-74
2021/11/24 11:45:57;;;;;;;10.70;6.57;;;9.20;76.60;;;;;;5035214;28;20771;-70
2021/11/24 11:48:31;;;;;;;8.93;5.17;;;9.30;75.90;;;;;;5035073;28;20873;-72
2021/11/24 11:51:00;;;;;;;14.60;6.33;;;9.40;74.50;;;;;;5033507;28;20441;-71
2021/11/24 11:53:29;;;;;;;10.03;5.80;;;9.30;72.10;;;;;;5033015;28;20412;-70
2021/11/24 11:56:13;;;;;;;10.07;5.53;;;9.30;72.70;;;;;;5034822;28;20405;-69
2021/11/24 11:59:04;;;;;;;9.03;4.73;;;9.30;72.30;;;;;;5036309;28;20513;-72
2021/11/24 12:01:32;;;;;;;10.90;5.87;;;9.30;72.00;;;;;;5035199;28;20968;-70
2021/11/24 12:04:08;;;;;;;7.43;4.30;;;9.20;70.50;;;;;;5034589;28;20497;-70
2021/11/24 12:06:43;;;;;;;7.80;4.30;;;9.20;71.00;;;;;;5034372;28;20411;-70
2021/11/24 12:09:28;;;;;;;7.17;4.80;;;9.10;69.50;;;;;;5034397;28;20474;-69
2021/11/24 12:12:09;;;;;;;7.67;3.53;;;8.90;70.50;;;;;;5034112;28;20421;-71
2021/11/24 12:14:56;;;;;;;5.70;3.07;;;8.90;70.80;;;;;;5034528;28;20555;-69
2021/11/24 12:20:02;;;;;;;3.20;1.60;;;8.80;66.70;;;;;;5034411;28;20433;-71
2021/11/24 12:27:57;;;;;;;2.60;2.20;;;8.70;64.10;;;;;;5034210;28;20855;-70
2021/11/24 12:33:20;;;;;;;5.93;2.50;;;8.70;62.40;;;;;;5032387;28;20425;-70
2021/11/24 12:36:10;;;;;;;3.60;2.20;;;8.70;63.30;;;;;;5033923;28;20520;-72
2021/11/24 12:38:48;;;;;;;5.70;2.27;;;8.70;63.20;;;;;;5031540;28;20444;-72
2021/11/24 12:41:21;;;;;;;8.80;3.67;;;8.70;62.00;;;;;;5034400;28;20452;-71
2021/11/24 12:43:58;;;;;;;6.07;3.83;;;8.80;62.60;;;;;;5033729;28;20409;-72
2021/11/24 12:46:30;;;;;;;6.77;2.90;;;8.80;62.40;;;;;;5034418;28;20772;-70
2021/11/24 12:49:05;;;;;;;6.20;2.80;;;8.70;61.90;;;;;;5033908;28;20829;-71
2021/11/24 12:51:47;;;;;;;6.30;3.03;;;8.70;61.80;;;;;;5034005;28;20915;-71
2021/11/24 12:54:20;;;;;;;4.37;1.57;;;8.70;63.00;;;;;;5033943;28;20481;-71